Time;durP1;ratioP1;P1;durP2;ratioP2;P2;SDS_P1;SDS_P2;PMS_P1;PMS_P2;Temp;Humidity;BMP_temperature;BMP_pressure;BME280_temperature;BME280_humidity;BME280_pressure;Samples;Min_cycle;Max_cycle;Signal;HPM_P1;HPM_P2
2023/10/06 00:01:33;;;;;;;;;;;8.30;99.90;;;7.20;100.00;98691.88;5006645;28;20000;-73
2023/10/06 00:04:06;;;;;;;;;;;8.30;99.90;;;7.27;100.00;98690.94;5008302;28;19940;-72
2023/10/06 00:06:37;;;;;;;;;;;8.30;99.90;;;7.31;100.00;98691.78;5005976;28;19925;-72
2023/10/06 00:09:06;;;;;;;;;;;8.30;99.90;;;7.30;100.00;98683.19;5009216;28;20001;-73
2023/10/06 00:11:34;;;;;;;;;;;8.40;99.90;;;7.10;100.00;98677.38;5008149;28;20421;-73
2023/10/06 00:14:01;;;;;;;;;;;8.40;99.90;;;7.04;100.00;98686.03;5006137;28;19937;-72
2023/10/06 00:16:33;;;;;;;;;;;8.30;99.90;;;6.94;100.00;98684.44;5015271;28;19933;-73
2023/10/06 00:19:20;;;;;;;;;;;8.20;99.90;;;6.90;100.00;98682.75;5006579;28;19941;-73
2023/10/06 00:21:53;;;;;;;;;;;8.10;99.90;;;6.92;100.00;98683.59;4993808;28;19958;-73
2023/10/06 00:24:25;;;;;;;;;;;8.10;99.90;;;6.89;100.00;98681.91;5003955;28;19989;-73
2023/10/06 00:26:52;;;;;;;;;;;8.00;99.90;;;6.99;100.00;98681.81;5005226;28;19936;-73
2023/10/06 00:29:22;;;;;;;;;;;8.00;99.90;;;7.03;100.00;98680.91;5006554;28;19940;-73
2023/10/06 00:31:49;;;;;;;;;;;8.10;99.90;;;6.91;100.00;98680.16;5005657;28;19933;-73
2023/10/06 00:34:19;;;;;;;;;;;8.10;99.90;;;7.02;100.00;98669.72;4992469;28;19930;-73
2023/10/06 00:36:51;;;;;;;;;;;8.10;99.90;;;7.10;100.00;98667.06;5002072;28;19933;-73
2023/10/06 00:39:23;;;;;;;;;;;8.10;99.90;;;7.01;100.00;98673.16;5003113;28;19934;-73
2023/10/06 00:41:56;;;;;;;;;;;8.10;99.90;;;7.08;100.00;98672.22;5005057;28;20042;-73
2023/10/06 00:44:23;;;;;;;;;;;8.10;99.90;;;7.07;100.00;98669.66;5004499;28;19933;-73
2023/10/06 00:46:50;;;;;;;;;;;8.20;99.90;;;7.12;100.00;98678.22;5003301;28;19983;-73
2023/10/06 00:49:19;;;;;;;;;;;8.20;99.90;;;7.15;100.00;98667.00;5004711;28;20016;-73
2023/10/06 00:51:47;;;;;;;;;;;8.20;99.90;;;7.04;100.00;98670.53;5000537;28;19926;-73
2023/10/06 00:54:14;;;;;;;;;;;8.20;99.90;;;6.97;100.00;98663.75;5016653;28;19930;-73
2023/10/06 00:56:42;;;;;;;;;;;8.20;99.90;;;6.92;100.00;98670.69;5019312;28;19972;-73
2023/10/06 00:59:11;;;;;;;;;;;8.10;99.90;;;6.87;100.00;98665.56;5006007;28;19935;-73
2023/10/06 01:01:42;;;;;;;;;;;8.00;99.90;;;6.64;100.00;98673.53;5007833;28;19960;-73
2023/10/06 01:04:16;;;;;;;;;;;8.00;99.90;;;6.54;100.00;98673.63;4992431;28;20036;-73
2023/10/06 01:06:43;;;;;;;;;;;7.90;99.90;;;6.47;100.00;98668.53;5005328;28;19926;-73
2023/10/06 01:09:16;;;;;;;;;;;7.80;99.90;;;6.54;100.00;98669.31;5003722;28;20016;-73
2023/10/06 01:11:48;;;;;;;;;;;7.80;99.90;;;6.61;100.00;98673.56;5013841;28;19926;-73
2023/10/06 01:14:21;;;;;;;;;;;7.70;99.90;;;6.54;100.00;98664.16;5005671;28;20025;-74
2023/10/06 01:16:51;;;;;;;;;;;7.80;99.90;;;6.64;100.00;98660.66;5003038;28;19933;-73
2023/10/06 01:19:27;;;;;;;;;;;7.80;99.90;;;6.67;100.00;98660.59;5017258;28;19933;-73
2023/10/06 01:21:55;;;;;;;;;;;7.80;99.90;;;6.61;100.00;98668.41;4992590;28;20225;-73
2023/10/06 01:24:26;;;;;;;;;;;7.70;99.90;;;6.48;100.00;98666.81;5018347;28;20480;-73
2023/10/06 01:26:58;;;;;;;;;;;7.70;99.90;;;6.44;100.00;98665.13;5005291;28;19934;-71
2023/10/06 01:29:30;;;;;;;;;;;7.60;99.90;;;6.44;100.00;98678.03;5001637;28;20012;-72
2023/10/06 01:32:04;;;;;;;;;;;7.50;99.90;;;6.37;100.00;98674.63;5008514;28;19981;-71
2023/10/06 01:34:38;;;;;;;;;;;7.40;99.90;;;6.33;100.00;98679.84;5016429;28;19987;-72
2023/10/06 01:37:11;;;;;;;;;;;7.40;99.90;;;6.44;100.00;98686.59;5005357;28;19930;-72
2023/10/06 01:39:39;;;;;;;;;;;7.50;99.90;;;6.38;100.00;98680.66;4999700;28;20422;-73
2023/10/06 01:42:16;;;;;;;;;;;7.50;99.90;;;6.34;100.00;98671.22;5004544;28;20394;-74
2023/10/06 01:44:44;;;;;;;;;;;7.50;99.90;;;6.25;100.00;98675.59;5003570;28;20029;-73
2023/10/06 01:47:11;;;;;;;;;;;7.50;99.90;;;6.37;100.00;98676.38;4999137;28;20036;-71
2023/10/06 01:49:39;;;;;;;;;;;7.40;99.90;;;6.26;100.00;98673.88;5001789;28;19925;-71
2023/10/06 01:52:07;;;;;;;;;;;7.30;99.90;;;6.25;100.00;98669.59;5006626;28;19929;-71
2023/10/06 01:54:36;;;;;;;;;;;7.40;99.90;;;6.34;100.00;98673.78;5003514;28;19929;-71
2023/10/06 01:57:06;;;;;;;;;;;7.40;99.90;;;6.17;100.00;98672.22;5005660;28;19960;-73
2023/10/06 01:59:34;;;;;;;;;;;7.40;99.90;;;6.13;100.00;98679.97;5007210;28;19930;-73
2023/10/06 02:02:02;;;;;;;;;;;7.30;99.90;;;6.02;100.00;98687.78;5017506;28;20435;-73
2023/10/06 02:04:44;;;;;;;;;;;7.20;99.90;;;6.10;100.00;98680.00;5001939;28;20361;-73
2023/10/06 02:07:12;;;;;;;;;;;7.20;99.90;;;6.05;100.00;98674.88;5005550;28;20012;-73
2023/10/06 02:09:39;;;;;;;;;;;7.20;99.90;;;6.03;100.00;98674.88;5005619;28;20377;-73
2023/10/06 02:12:06;;;;;;;;;;;7.10;99.90;;;5.85;100.00;98665.50;5004296;28;19957;-73
2023/10/06 02:14:33;;;;;;;;;;;7.10;99.90;;;5.87;100.00;98668.94;5003836;28;19931;-73
2023/10/06 02:17:05;;;;;;;;;;;7.10;99.90;;;5.86;100.00;98654.34;5007728;28;20349;-72
2023/10/06 02:19:34;;;;;;;;;;;7.00;99.90;;;5.93;100.00;98656.88;5007899;28;20329;-73
2023/10/06 02:22:01;;;;;;;;;;;7.00;99.90;;;6.12;100.00;98652.50;5006747;28;20571;-72
2023/10/06 02:24:28;;;;;;;;;;;7.10;99.90;;;6.14;100.00;98654.19;5003053;28;20035;-72
2023/10/06 02:27:00;;;;;;;;;;;7.20;99.90;;;6.27;100.00;98663.56;5002278;28;19930;-73
2023/10/06 02:29:27;;;;;;;;;;;7.30;99.90;;;6.27;100.00;98645.50;5000049;28;20304;-73
2023/10/06 02:32:00;;;;;;;;;;;7.30;99.90;;;6.05;100.00;98649.97;5001209;28;20454;-73
2023/10/06 02:34:29;;;;;;;;;;;7.30;99.90;;;5.93;100.00;98649.16;5002303;28;19937;-73
2023/10/06 02:36:56;;;;;;;;;;;7.20;99.90;;;5.98;100.00;98650.88;4990916;28;19936;-73
2023/10/06 02:39:28;;;;;;;;;;;7.10;99.90;;;5.91;100.00;98641.44;5001457;28;19961;-73
2023/10/06 02:41:57;;;;;;;;;;;7.00;99.90;;;5.95;100.00;98640.56;5001361;28;19929;-74
2023/10/06 02:44:25;;;;;;;;;;;7.00;99.90;;;5.94;100.00;98640.56;5004778;28;19961;-73
2023/10/06 02:46:55;;;;;;;;;;;6.90;99.90;;;5.90;100.00;98634.56;5003192;28;20353;-73
2023/10/06 02:49:35;;;;;;;;;;;6.90;99.90;;;5.85;100.00;98631.16;4988710;28;20773;-73
2023/10/06 02:52:13;;;;;;;;;;;6.90;99.90;;;5.85;100.00;98631.16;5000675;28;20342;-73
2023/10/06 02:55:32;;;;;;;;;;;7.00;99.90;;;5.84;100.00;98627.75;5004104;28;20349;-73
2023/10/06 02:57:35;;;;;;;;;;;6.90;99.90;;;5.78;100.00;98627.78;5002976;28;20024;-73
2023/10/06 03:00:32;;;;;;;;;;;6.80;99.90;;;5.75;100.00;98622.66;5006053;28;20004;-73
2023/10/06 03:03:12;;;;;;;;;;;6.80;99.90;;;5.85;100.00;98623.44;5013712;28;19929;-74
2023/10/06 03:05:39;;;;;;;;;;;6.80;99.90;;;5.74;100.00;98620.94;5001256;28;19927;-71
2023/10/06 03:08:09;;;;;;;;;;;6.80;99.90;;;5.75;100.00;98619.22;5000631;28;20048;-71
2023/10/06 03:10:48;;;;;;;;;;;6.70;99.90;;;5.76;100.00;98616.63;5004309;28;19933;-71
2023/10/06 03:13:43;;;;;;;;;;;6.70;99.90;;;5.72;100.00;98607.19;5002057;28;20402;-72
2023/10/06 03:16:10;;;;;;;;;;;6.80;99.90;;;5.64;100.00;98602.09;4998780;28;20016;-72
2023/10/06 03:18:39;;;;;;;;;;;6.80;99.90;;;5.76;100.00;98602.91;5004035;28;19934;-72
2023/10/06 03:23:43;;;;;;;;;;;6.90;99.90;;;5.92;100.00;98606.22;5000585;28;19965;-71
2023/10/06 03:26:33;;;;;;;;;;;6.90;99.90;;;5.92;100.00;98607.06;5000936;28;20398;-72
2023/10/06 03:29:11;;;;;;;;;;;6.90;99.90;;;5.82;100.00;98602.84;5001590;28;20402;-73
2023/10/06 03:31:47;;;;;;;;;;;6.90;99.90;;;5.80;100.00;98605.44;5012874;28;20298;-73
2023/10/06 03:34:19;;;;;;;;;;;6.90;99.90;;;5.83;100.00;98609.72;5007280;28;19930;-72
2023/10/06 03:36:51;;;;;;;;;;;6.90;99.90;;;5.79;100.00;98614.03;5008234;28;20008;-73
2023/10/06 03:39:24;;;;;;;;;;;6.80;99.90;;;5.77;100.00;98612.31;5006081;28;19956;-73
2023/10/06 03:41:59;;;;;;;;;;;6.80;99.90;;;5.78;100.00;98608.88;5006216;28;19929;-73
2023/10/06 03:44:29;;;;;;;;;;;6.80;99.90;;;5.92;100.00;98612.22;5018506;28;19925;-73
2023/10/06 03:47:00;;;;;;;;;;;6.90;99.90;;;5.60;100.00;98608.13;5004119;28;19964;-73
2023/10/06 03:49:33;;;;;;;;;;;6.90;99.90;;;5.79;100.00;98618.31;5019627;28;19936;-73
2023/10/06 03:52:00;;;;;;;;;;;6.80;99.90;;;5.74;100.00;98602.91;5007367;28;19929;-72
2023/10/06 03:54:27;;;;;;;;;;;6.80;99.90;;;5.60;100.00;98608.13;5009349;28;20425;-73
2023/10/06 03:56:54;;;;;;;;;;;6.70;99.90;;;5.64;100.00;98607.25;5003709;28;20333;-72
2023/10/06 03:59:21;;;;;;;;;;;6.70;99.90;;;5.70;100.00;98608.06;5010611;28;19929;-73
2023/10/06 04:01:51;;;;;;;;;;;6.70;99.90;;;5.60;100.00;98607.28;5007610;28;19934;-73
2023/10/06 04:04:22;;;;;;;;;;;6.60;99.90;;;5.43;100.00;98612.56;5003630;28;19930;-73
2023/10/06 04:06:50;;;;;;;;;;;6.50;99.90;;;5.36;100.00;98608.25;5002712;28;20346;-73
2023/10/06 04:09:27;;;;;;;;;;;6.40;99.90;;;5.25;100.00;98616.06;5002271;28;19976;-73
2023/10/06 04:12:00;;;;;;;;;;;6.30;99.90;;;5.08;100.00;98617.84;5004331;28;20570;-73
2023/10/06 04:14:31;;;;;;;;;;;6.10;99.90;;;5.20;100.00;98607.47;5005715;28;20017;-73
2023/10/06 04:17:01;;;;;;;;;;;6.20;99.90;;;5.28;100.00;98616.03;5018183;28;19939;-73
2023/10/06 04:19:29;;;;;;;;;;;6.20;99.90;;;5.29;100.00;98610.03;5005345;28;20503;-73
2023/10/06 04:21:56;;;;;;;;;;;6.30;99.90;;;5.38;100.00;98609.13;5020730;28;19974;-72
2023/10/06 04:24:22;;;;;;;;;;;6.40;99.90;;;5.41;100.00;98604.81;5005374;28;19941;-73
2023/10/06 04:26:49;;;;;;;;;;;6.50;99.90;;;5.55;100.00;98603.91;5007107;28;20286;-73
2023/10/06 04:29:18;;;;;;;;;;;6.60;99.90;;;5.57;100.00;98604.75;5003093;28;19952;-73
2023/10/06 04:31:46;;;;;;;;;;;6.60;99.90;;;5.60;100.00;98605.56;5004883;28;20048;-70
2023/10/06 04:34:14;;;;;;;;;;;6.60;99.90;;;5.57;100.00;98603.00;5000053;28;19934;-70
2023/10/06 04:36:40;;;;;;;;;;;6.70;99.90;;;5.58;100.00;98617.59;4995629;28;20031;-73
2023/10/06 04:39:11;;;;;;;;;;;6.70;99.90;;;5.50;100.00;98624.53;5003325;28;19936;-70
2023/10/06 04:41:41;;;;;;;;;;;6.70;99.90;;;5.50;100.00;98633.97;5005284;28;20398;-73
2023/10/06 04:44:08;;;;;;;;;;;6.70;99.90;;;5.55;100.00;98638.22;5002703;28;20012;-70
2023/10/06 04:46:35;;;;;;;;;;;6.70;99.90;;;5.40;100.00;98643.44;5008599;28;19925;-70
2023/10/06 04:49:02;;;;;;;;;;;6.70;99.90;;;5.26;100.00;98640.94;5003849;28;19937;-73
2023/10/06 04:51:29;;;;;;;;;;;6.60;99.90;;;5.14;100.00;98639.25;5001767;28;19979;-72
2023/10/06 04:53:56;;;;;;;;;;;6.50;99.90;;;5.09;100.00;98637.59;5003059;28;19933;-72
2023/10/06 04:56:22;;;;;;;;;;;6.40;99.90;;;5.01;100.00;98637.59;5005257;28;20413;-73
2023/10/06 04:58:50;;;;;;;;;;;6.30;99.90;;;4.97;100.00;98641.91;5004160;28;19931;-72
2023/10/06 05:01:17;;;;;;;;;;;6.30;99.90;;;5.15;100.00;98638.38;5005510;28;19977;-73
2023/10/06 05:03:44;;;;;;;;;;;6.30;99.90;;;5.16;100.00;98632.41;5006379;28;20515;-73
2023/10/06 05:06:16;;;;;;;;;;;6.30;99.90;;;5.22;100.00;98629.81;5003852;28;20429;-70
2023/10/06 05:08:48;;;;;;;;;;;6.30;99.90;;;5.15;100.00;98634.97;5020136;28;19929;-72
2023/10/06 05:11:20;;;;;;;;;;;6.30;99.90;;;5.16;100.00;98634.13;5004465;28;20039;-73
2023/10/06 05:13:49;;;;;;;;;;;6.30;99.90;;;5.15;100.00;98630.66;5004792;28;19926;-72
2023/10/06 05:16:18;;;;;;;;;;;6.40;99.90;;;5.17;100.00;98628.09;5015576;28;19926;-72
2023/10/06 05:18:47;;;;;;;;;;;6.40;99.90;;;5.12;100.00;98627.28;5002549;28;19938;-73
2023/10/06 05:21:15;;;;;;;;;;;6.40;99.90;;;5.15;100.00;98632.41;5001917;28;19930;-72
2023/10/06 05:23:45;;;;;;;;;;;6.40;99.90;;;5.12;100.00;98635.84;5003080;28;19929;-71
2023/10/06 05:26:14;;;;;;;;;;;6.30;99.90;;;5.09;100.00;98630.72;5003324;28;19977;-72
2023/10/06 05:28:42;;;;;;;;;;;6.40;99.90;;;5.14;100.00;98634.13;5000522;28;19932;-71
2023/10/06 05:31:10;;;;;;;;;;;6.40;99.90;;;5.12;100.00;98627.28;5004892;28;20327;-72
2023/10/06 05:33:40;;;;;;;;;;;6.30;99.90;;;5.12;100.00;98624.69;5006031;28;19973;-72
2023/10/06 05:36:11;;;;;;;;;;;6.30;99.90;;;5.23;100.00;98628.09;5004586;28;20533;-72
2023/10/06 05:38:40;;;;;;;;;;;6.30;99.90;;;5.22;100.00;98634.06;5003504;28;19948;-72
2023/10/06 05:41:11;;;;;;;;;;;6.30;99.90;;;5.24;100.00;98632.34;5003869;28;20313;-72
2023/10/06 05:43:40;;;;;;;;;;;6.40;99.90;;;5.26;100.00;98628.06;4997152;28;19929;-72
2023/10/06 05:46:09;;;;;;;;;;;6.40;99.90;;;5.27;100.00;98645.22;5010861;28;19929;-72
2023/10/06 05:48:38;;;;;;;;;;;6.40;99.90;;;5.32;100.00;98643.50;5020185;28;20032;-72
2023/10/06 05:51:11;;;;;;;;;;;6.40;99.90;;;5.32;100.00;98643.50;4998597;28;20040;-72
2023/10/06 05:53:40;;;;;;;;;;;6.50;99.90;;;5.30;100.00;98652.09;5009841;28;20353;-73
2023/10/06 05:56:07;;;;;;;;;;;6.50;99.90;;;5.35;100.00;98653.75;5015247;28;19934;-73
2023/10/06 05:58:37;;;;;;;;;;;6.50;99.90;;;5.37;100.00;98653.75;5005156;28;19933;-70
2023/10/06 06:01:10;;;;;;;;;;;6.50;99.90;;;5.36;100.00;98657.19;5003038;28;19933;-73
2023/10/06 06:03:44;;;;;;;;;;;6.50;99.90;;;5.39;100.00;98652.03;5005224;28;19937;-72
2023/10/06 06:06:21;;;;;;;;;;;6.40;99.90;;;5.34;100.00;98661.50;5005040;28;19987;-73
2023/10/06 06:08:53;;;;;;;;;;;6.40;99.90;;;5.39;100.00;98657.19;5004414;28;19961;-72
2023/10/06 06:11:20;;;;;;;;;;;6.40;99.90;;;5.39;100.00;98652.03;4990503;28;20384;-72
2023/10/06 06:13:47;;;;;;;;;;;6.40;99.90;;;5.22;100.00;98652.09;5001044;28;19925;-72
2023/10/06 06:16:25;;;;;;;;;;;6.40;99.90;;;5.13;100.00;98649.56;5001692;28;19930;-72
2023/10/06 06:18:52;;;;;;;;;;;6.30;99.90;;;5.17;100.00;98648.69;5003352;28;19941;-71
2023/10/06 06:21:24;;;;;;;;;;;6.30;99.90;;;5.16;100.00;98647.00;5001122;28;19997;-72
2023/10/06 06:23:55;;;;;;;;;;;6.20;99.90;;;5.09;100.00;98653.88;5001462;28;19971;-72
2023/10/06 06:26:23;;;;;;;;;;;6.10;99.90;;;5.20;100.00;98658.97;5007898;28;19941;-72
2023/10/06 06:28:52;;;;;;;;;;;6.20;99.90;;;5.18;100.00;98660.72;5003824;28;19987;-72
2023/10/06 06:31:20;;;;;;;;;;;6.20;99.90;;;5.20;100.00;98666.69;5005497;28;19961;-72
2023/10/06 06:33:48;;;;;;;;;;;6.20;99.90;;;5.47;100.00;98664.88;5009986;28;19933;-72
2023/10/06 06:36:18;;;;;;;;;;;6.30;99.90;;;5.59;100.00;98662.25;5005281;28;19933;-72
2023/10/06 06:38:46;;;;;;;;;;;6.40;99.90;;;5.49;100.00;98663.16;5001312;28;19930;-72
2023/10/06 06:41:13;;;;;;;;;;;6.50;99.90;;;5.61;100.00;98669.09;5018940;28;20362;-72
2023/10/06 06:43:45;;;;;;;;;;;6.60;99.90;;;5.77;100.00;98664.72;5001489;28;19929;-72
2023/10/06 06:46:13;;;;;;;;;;;6.70;99.90;;;5.91;100.00;98669.78;5000176;28;19983;-72
2023/10/06 06:48:43;;;;;;;;;;;6.80;99.90;;;5.92;100.00;98671.50;4998648;28;19952;-71
2023/10/06 06:51:11;;;;;;;;;;;6.90;99.90;;;6.03;100.00;98666.31;5002378;28;19930;-71
2023/10/06 06:53:41;;;;;;;;;;;7.00;99.90;;;6.19;100.00;98672.19;5002151;28;20449;-72
2023/10/06 06:56:10;;;;;;;;;;;7.10;99.90;;;6.51;100.00;98676.25;5017339;28;19930;-71
2023/10/06 06:58:38;;;;;;;;;;;7.20;99.90;;;6.61;100.00;98678.72;5001336;28;19930;-72
2023/10/06 07:01:07;;;;;;;;;;;7.30;99.90;;;6.40;100.00;98686.66;4998016;28;19929;-72
2023/10/06 07:03:34;;;;;;;;;;;7.50;99.90;;;6.69;100.00;98665.75;5000200;28;19930;-71
2023/10/06 07:06:01;;;;;;;;;;;7.40;99.90;;;6.57;100.00;98659.00;4999534;28;20020;-72
2023/10/06 07:08:28;;;;;;;;;;;7.50;99.90;;;6.73;100.00;98662.28;5000925;28;20088;-72
2023/10/06 07:10:56;;;;;;;;;;;7.50;99.90;;;6.81;100.00;98670.78;5001253;28;19940;-73
2023/10/06 07:13:23;;;;;;;;;;;7.60;99.90;;;7.06;100.00;98675.69;5004026;28;20329;-71
2023/10/06 07:15:50;;;;;;;;;;;7.70;99.90;;;7.21;100.00;98687.59;4999108;28;20483;-72
2023/10/06 07:18:19;;;;;;;;;;;7.80;99.90;;;7.47;100.00;98679.53;5001081;28;19937;-72
2023/10/06 07:20:48;;;;;;;;;;;8.00;99.90;;;7.84;100.00;98677.31;5002960;28;20570;-73
2023/10/06 07:23:15;;;;;;;;;;;8.10;99.90;;;8.21;100.00;98681.97;5001045;28;19935;-72
2023/10/06 07:25:42;;;;;;;;;;;8.10;99.90;;;9.15;100.00;98673.47;5001519;28;20003;-72
2023/10/06 07:28:12;;;;;;;;;;;8.40;99.90;;;10.08;100.00;98672.38;5002434;28;19953;-73
2023/10/06 07:30:39;;;;;;;;;;;8.90;99.90;;;11.29;100.00;98666.72;5005255;28;19937;-72
2023/10/06 07:33:06;;;;;;;;;;;9.70;99.90;;;12.05;100.00;98657.56;5004819;28;20357;-73
2023/10/06 07:35:43;;;;;;;;;;;10.70;99.90;;;12.52;100.00;98646.50;5012808;28;19929;-72
2023/10/06 07:38:11;;;;;;;;;;;11.90;99.90;;;12.28;100.00;98658.59;5002907;28;19926;-70
2023/10/06 07:40:38;;;;;;;;;;;12.40;99.90;;;11.44;100.00;98649.81;4997103;28;19929;-71
2023/10/06 07:43:07;;;;;;;;;;;12.40;99.90;;;11.07;100.00;98652.59;5002870;28;19975;-70
2023/10/06 07:45:34;;;;;;;;;;;12.10;99.90;;;11.20;100.00;98666.09;5002547;28;20024;-70
2023/10/06 07:48:01;;;;;;;;;;;12.10;99.90;;;12.07;100.00;98673.97;5003082;28;19929;-70
2023/10/06 07:50:29;;;;;;;;;;;13.00;99.90;;;13.44;100.00;98671.16;5001692;28;21057;-71
2023/10/06 07:52:57;;;;;;;;;;;14.20;99.90;;;14.70;100.00;98661.00;5000854;28;19934;-70
2023/10/06 07:55:24;;;;;;;;;;;15.30;99.90;;;15.83;100.00;98663.03;5006406;28;19936;-72
2023/10/06 07:57:51;;;;;;;;;;;16.40;99.90;;;15.77;100.00;98666.75;5001821;28;19983;-72
2023/10/06 08:00:29;;;;;;;;;;;17.10;99.90;;;14.85;100.00;98662.97;5001220;28;19937;-72
2023/10/06 08:02:58;;;;;;;;;;;16.60;99.90;;;14.66;100.00;98662.88;4997486;28;19939;-73
2023/10/06 08:05:27;;;;;;;;;;;15.70;99.90;;;13.40;100.00;98665.19;5012228;28;20012;-73
2023/10/06 08:08:00;;;;;;;;;;;14.70;99.90;;;12.85;100.00;98673.16;4999095;28;19984;-73
2023/10/06 08:10:30;;;;;;;;;;;14.20;99.90;;;12.79;100.00;98657.75;4999686;28;19936;-72
2023/10/06 08:13:00;;;;;;;;;;;14.10;99.90;;;13.66;100.00;98663.34;5010825;28;20346;-72
2023/10/06 08:15:29;;;;;;;;;;;14.60;99.90;;;13.98;100.00;98673.44;5000627;28;19940;-73
2023/10/06 08:17:55;;;;;;;;;;;15.10;99.90;;;14.29;100.00;98679.19;4990951;28;19929;-72
2023/10/06 08:20:24;;;;;;;;;;;15.30;99.90;;;14.11;100.00;98686.84;5017498;28;19930;-72
2023/10/06 08:22:52;;;;;;;;;;;15.20;99.90;;;14.26;100.00;98681.94;5005263;28;19932;-73
2023/10/06 08:25:21;;;;;;;;;;;15.00;99.90;;;14.32;100.00;98681.69;5006145;28;19999;-72
2023/10/06 08:27:50;;;;;;;;;;;15.00;99.90;;;14.07;100.00;98682.66;5004981;28;19960;-73
2023/10/06 08:30:19;;;;;;;;;;;15.10;99.90;;;14.40;100.00;98667.41;5004075;28;19933;-73
2023/10/06 08:32:54;;;;;;;;;;;15.00;99.90;;;13.91;100.00;98678.94;5008080;28;20021;-72
2023/10/06 08:35:21;;;;;;;;;;;15.00;99.90;;;13.76;100.00;98681.22;5009841;28;19944;-73
2023/10/06 08:37:51;;;;;;;;;;;15.10;99.90;;;15.18;100.00;98686.81;5006780;28;20394;-72
2023/10/06 08:40:22;;;;;;;;;;;15.70;99.90;;;15.54;100.00;98685.25;5019684;28;20017;-72
2023/10/06 08:42:52;;;;;;;;;;;16.20;99.90;;;15.64;100.00;98684.75;5002504;28;19925;-73
2023/10/06 08:45:21;;;;;;;;;;;16.50;99.90;;;16.45;100.00;98679.28;5002319;28;20023;-73
2023/10/06 08:47:49;;;;;;;;;;;16.90;99.90;;;16.59;100.00;98673.34;5005568;28;20386;-73
2023/10/06 08:50:30;;;;;;;;;;;17.20;99.90;;;16.45;100.00;98672.25;5007740;28;20015;-72
2023/10/06 08:52:58;;;;;;;;;;;17.10;99.90;;;17.26;100.00;98677.81;5005789;28;20020;-72
2023/10/06 08:55:27;;;;;;;;;;;17.50;99.90;;;18.66;100.00;98667.53;5017794;28;19929;-73
2023/10/06 08:57:58;;;;;;;;;;;18.40;99.90;;;19.10;100.00;98677.22;5000939;28;19930;-72
2023/10/06 09:00:31;;;;;;;;;;;19.30;99.90;;;19.62;100.00;98684.59;5003959;28;19934;-73
2023/10/06 09:03:07;;;;;;;;;;;20.10;99.90;;;19.05;100.00;98691.59;5001935;28;19932;-73
2023/10/06 09:05:44;;;;;;;;;;;20.40;99.90;;;18.13;100.00;98687.19;5002606;28;19933;-72
2023/10/06 09:08:15;;;;;;;;;;;20.30;99.90;;;17.48;100.00;98687.19;5008276;28;19929;-73
2023/10/06 09:10:44;;;;;;;;;;;20.30;99.90;;;17.48;100.00;98676.69;5003159;28;19933;-73
2023/10/06 09:13:12;;;;;;;;;;;20.30;99.90;;;16.90;100.00;98676.16;5005205;28;20449;-72
2023/10/06 09:15:40;;;;;;;;;;;20.30;99.90;;;17.10;100.00;98664.63;5001811;28;19969;-72
2023/10/06 09:18:19;;;;;;;;;;;20.00;99.90;;;16.75;100.00;98660.34;5018470;28;19930;-73
2023/10/06 09:20:49;;;;;;;;;;;19.40;99.90;;;16.60;100.00;98668.00;5001634;28;19925;-73
2023/10/06 09:23:34;;;;;;;;;;;19.10;99.90;;;16.48;100.00;98668.63;5001880;28;19934;-72
2023/10/06 09:26:02;;;;;;;;;;;18.80;99.90;;;16.42;100.00;98664.56;4998039;28;19926;-73
2023/10/06 09:28:31;;;;;;;;;;;18.40;99.90;;;16.52;100.00;98655.31;5006941;28;19937;-75
2023/10/06 09:31:01;;;;;;;;;;;18.10;99.90;;;16.25;100.00;98657.50;4998697;28;20366;-73
2023/10/06 09:33:41;;;;;;;;;;;17.90;99.90;;;16.17;100.00;98651.81;5001422;28;20695;-73
2023/10/06 09:36:17;;;;;;;;;;;17.50;99.90;;;15.76;100.00;98665.06;5003410;28;19983;-73
2023/10/06 09:39:13;;;;;;;;;;;16.90;99.90;;;15.61;100.00;98668.34;4990011;28;20366;-72
2023/10/06 09:41:41;;;;;;;;;;;16.40;99.90;;;15.38;100.00;98670.25;5001927;28;20024;-73
2023/10/06 09:44:11;;;;;;;;;;;16.10;99.90;;;14.96;100.00;98667.72;5002325;28;19929;-73
2023/10/06 09:46:43;;;;;;;;;;;16.00;99.90;;;15.04;100.00;98657.81;5005994;28;20057;-72
2023/10/06 09:49:15;;;;;;;;;;;16.00;99.90;;;15.18;100.00;98662.44;5008874;28;19932;-73
2023/10/06 09:51:43;;;;;;;;;;;15.90;99.90;;;15.20;100.00;98660.59;5008006;28;20412;-73
2023/10/06 09:54:11;;;;;;;;;;;15.80;99.90;;;15.22;100.00;98662.22;5015161;28;19930;-73
2023/10/06 09:56:41;;;;;;;;;;;15.80;99.90;;;15.33;100.00;98651.28;5005209;28;20310;-73
2023/10/06 09:59:12;;;;;;;;;;;15.80;99.90;;;15.45;100.00;98642.88;5012583;28;20009;-74
2023/10/06 10:01:42;;;;;;;;;;;15.90;99.90;;;15.67;100.00;98653.22;5015962;28;19926;-74
2023/10/06 10:04:12;;;;;;;;;;;15.90;99.90;;;15.61;100.00;98656.13;5015297;28;19983;-73
2023/10/06 10:06:43;;;;;;;;;;;15.80;99.90;;;15.64;100.00;98665.59;5002803;28;19925;-73
2023/10/06 10:09:20;;;;;;;;;;;15.90;99.90;;;15.66;100.00;98651.50;5002785;28;19932;-73
2023/10/06 10:12:14;;;;;;;;;;;16.00;99.90;;;16.31;100.00;98653.75;5002074;28;19929;-73
2023/10/06 10:14:53;;;;;;;;;;;16.20;99.90;;;16.35;100.00;98662.28;5002552;28;19933;-74
2023/10/06 10:17:29;;;;;;;;;;;16.50;99.90;;;16.38;100.00;98660.38;5020989;28;20287;-73
2023/10/06 10:19:58;;;;;;;;;;;16.60;99.90;;;16.06;100.00;98667.19;5014501;28;19934;-73
2023/10/06 10:22:28;;;;;;;;;;;16.40;99.90;;;15.62;100.00;98665.69;5003963;28;19992;-73
2023/10/06 10:25:00;;;;;;;;;;;16.40;99.90;;;15.92;100.00;98662.59;5017329;28;20299;-73
2023/10/06 10:27:30;;;;;;;;;;;16.30;99.90;;;15.86;100.00;98661.09;5015713;28;20003;-74
2023/10/06 10:30:07;;;;;;;;;;;16.20;99.90;;;16.11;100.00;98659.94;5004470;28;19934;-74
2023/10/06 10:32:34;;;;;;;;;;;16.20;99.90;;;15.80;100.00;98653.53;5015066;28;19933;-74
2023/10/06 10:35:13;;;;;;;;;;;16.40;99.90;;;15.92;100.00;98649.50;5018513;28;19933;-73
2023/10/06 10:38:18;;;;;;;;;;;16.40;99.90;;;16.20;100.00;98650.81;5018497;28;20316;-73
2023/10/06 10:44:39;;;;;;;;;;;16.40;99.90;;;16.15;100.00;98647.53;5002525;28;20407;-72
2023/10/06 10:47:10;;;;;;;;;;;16.60;99.90;;;16.20;100.00;98658.66;5006825;28;20301;-72
2023/10/06 10:50:05;;;;;;;;;;;16.70;99.90;;;16.16;100.00;98655.31;4999861;28;20000;-72
2023/10/06 10:52:39;;;;;;;;;;;16.70;99.90;;;16.14;100.00;98659.78;4999419;28;19934;-72
2023/10/06 10:59:31;;;;;;;;;;;16.40;99.90;;;16.19;100.00;98647.31;4960007;28;19935;-75
2023/10/06 11:02:13;;;;;;;;;;;16.50;99.90;;;16.38;100.00;98649.06;4960683;28;20048;-75
2023/10/06 11:05:37;;;;;;;;;;;16.60;99.90;;;16.31;100.00;98640.66;4956708;28;19974;-72
2023/10/06 11:09:40;;;;;;;;;;;16.70;99.90;;;16.24;100.00;98631.41;4953674;28;19929;-74
2023/10/06 11:15:55;;;;;;;;;;;16.80;99.90;;;16.55;100.00;98642.97;4883327;29;19934;-74
2023/10/06 11:18:22;;;;;;;;;;;16.90;99.90;;;16.59;100.00;98641.91;4878004;29;19947;-73
2023/10/06 11:20:49;;;;;;;;;;;16.80;99.90;;;16.58;100.00;98633.19;4917694;28;20021;-73
2023/10/06 11:23:17;;;;;;;;;;;16.90;99.90;;;16.80;100.00;98632.97;4942683;28;19935;-73
2023/10/06 11:25:48;;;;;;;;;;;17.00;99.90;;;16.81;100.00;98636.44;4950094;28;19993;-74
2023/10/06 11:28:16;;;;;;;;;;;17.10;99.90;;;17.07;100.00;98638.56;4963277;28;19997;-74
2023/10/06 11:30:43;;;;;;;;;;;17.30;99.90;;;16.89;100.00;98629.88;4944583;28;19930;-73
2023/10/06 11:33:11;;;;;;;;;;;17.30;99.90;;;16.87;100.00;98623.03;4986830;28;20716;-73
2023/10/06 11:35:40;;;;;;;;;;;17.40;99.90;;;16.81;100.00;98623.31;5000227;28;20013;-74
2023/10/06 11:38:27;;;;;;;;;;;17.40;99.90;;;16.92;100.00;98616.63;4997724;28;19939;-73
2023/10/06 11:40:56;;;;;;;;;;;17.50;99.90;;;16.89;100.00;98618.53;4996616;28;19996;-73
2023/10/06 11:43:23;;;;;;;;;;;17.40;99.90;;;16.90;100.00;98612.34;5011528;28;20322;-73
2023/10/06 11:46:01;;;;;;;;;;;17.40;99.90;;;17.06;100.00;98615.91;5001170;28;19984;-73
2023/10/06 11:48:29;;;;;;;;;;;17.50;99.90;;;17.19;100.00;98613.47;4996768;28;20753;-75
2023/10/06 11:51:06;;;;;;;;;;;17.50;99.90;;;16.99;100.00;98609.28;4998819;28;19941;-73
2023/10/06 11:53:39;;;;;;;;;;;17.50;99.90;;;17.25;100.00;98617.56;5018925;28;19929;-74